Luzilandia, Brazil
Current Conditions -  °F | °C
As of 8:00 PM on Wednesday 26 Nov 2014 (Local Time) from SBPB Reporting Station
Scattered Clouds Scattered Clouds  
Wind Chill: 82°   Ceiling: Unl
Heat Index: 89°   Visibility: 6mi
Dew Point: 75°   Wind: 23mph
Humidity: 79%   Direction: 90°E
Pressure: 29.8"   Gusts: NA
Location:  3.46°S, 42.37°W
Report Text: SBPB 262300Z 09020KT 9999 SCT020 28/24 Q1009
Loading
Personal Weather Stations






























Interactive Weather Map New forecast layout! Learn more

10-Day Weather Forecast

Advertisements
Track Severe Weather on mobile